Time;durP1;ratioP1;P1;durP2;ratioP2;P2;SDS_P1;SDS_P2;PMS_P1;PMS_P2;Temp;Humidity;BMP_temperature;BMP_pressure;BME280_temperature;BME280_humidity;BME280_pressure;Samples;Min_cycle;Max_cycle;Signal;HPM_P1;HPM_P2
2023/03/02 00:00:46;;;;;;;40.35;19.40;;;;;;;;;;4952177;28;20078;-68
2023/03/02 00:03:13;;;;;;;40.63;19.60;;;;;;;;;;4968002;28;20415;-68
2023/03/02 00:05:39;;;;;;;36.20;19.67;;;;;;;;;;4968417;28;20430;-68
2023/03/02 00:08:07;;;;;;;46.13;21.63;;;;;;;;;;4968336;28;20050;-69
2023/03/02 00:10:33;;;;;;;44.78;23.77;;;;;;;;;;4966865;28;20084;-70
2023/03/02 00:12:58;;;;;;;41.00;22.30;;;;;;;;;;4965006;28;20042;-70
2023/03/02 00:15:23;;;;;;;40.05;22.10;;;;;;;;;;4963995;28;20065;-71
2023/03/02 00:17:49;;;;;;;36.72;19.98;;;;;;;;;;4968791;28;20129;-71
2023/03/02 00:20:15;;;;;;;42.53;21.85;;;;;;;;;;4965086;28;20062;-71
2023/03/02 00:22:43;;;;;;;45.13;20.98;;;;;;;;;;4967934;28;20521;-71
2023/03/02 00:25:09;;;;;;;41.92;21.77;;;;;;;;;;4969686;28;20097;-71
2023/03/02 00:27:35;;;;;;;46.30;21.38;;;;;;;;;;4972816;28;20183;-71
2023/03/02 00:30:01;;;;;;;49.63;23.38;;;;;;;;;;4971464;28;20503;-71
2023/03/02 00:32:26;;;;;;;42.80;23.77;;;;;;;;;;4969738;28;20073;-71
2023/03/02 00:34:52;;;;;;;45.50;22.67;;;;;;;;;;4969884;28;20402;-72
2023/03/02 00:37:18;;;;;;;42.63;21.45;;;;;;;;;;4968252;28;20094;-71
2023/03/02 00:39:43;;;;;;;45.40;23.40;;;;;;;;;;4967465;28;20125;-71
2023/03/02 00:42:09;;;;;;;42.78;21.88;;;;;;;;;;4959950;28;20042;-69
2023/03/02 00:44:34;;;;;;;35.75;21.13;;;;;;;;;;4961083;28;20051;-69
2023/03/02 00:47:00;;;;;;;22.80;13.13;;;;;;;;;;4959827;28;20035;-69
2023/03/02 00:49:25;;;;;;;40.80;21.98;;;;;;;;;;4976406;28;20196;-69
2023/03/02 00:51:51;;;;;;;52.13;26.15;;;;;;;;;;4959405;28;20069;-69
2023/03/02 00:54:16;;;;;;;45.97;21.85;;;;;;;;;;4965625;28;20050;-68
2023/03/02 00:56:42;;;;;;;37.70;21.80;;;;;;;;;;4960042;28;20043;-69
2023/03/02 00:59:25;;;;;;;34.08;18.67;;;;;;;;;;4963700;28;20389;-69
2023/03/02 01:01:59;;;;;;;43.53;22.48;;;;;;;;;;4976363;28;20081;-69
2023/03/02 01:04:35;;;;;;;42.45;21.40;;;;;;;;;;4962433;28;20673;-69
2023/03/02 01:07:04;;;;;;;41.65;20.98;;;;;;;;;;4964607;28;20551;-69
2023/03/02 01:09:30;;;;;;;45.05;22.45;;;;;;;;;;4967510;28;20960;-70
2023/03/02 01:11:56;;;;;;;43.85;22.85;;;;;;;;;;4975813;28;20034;-69
2023/03/02 01:14:22;;;;;;;47.42;22.70;;;;;;;;;;4960167;28;20064;-69
2023/03/02 01:16:47;;;;;;;43.63;22.23;;;;;;;;;;4958611;28;20058;-69
2023/03/02 01:19:13;;;;;;;39.85;21.92;;;;;;;;;;4973764;28;20418;-69
2023/03/02 01:21:40;;;;;;;35.83;19.73;;;;;;;;;;4963787;28;20062;-71
2023/03/02 01:24:06;;;;;;;40.28;16.45;;;;;;;;;;4977565;28;20417;-71
2023/03/02 01:26:31;;;;;;;31.30;18.35;;;;;;;;;;4965753;28;20042;-70
2023/03/02 01:28:56;;;;;;;50.60;27.25;;;;;;;;;;4965536;28;20100;-70
2023/03/02 01:31:23;;;;;;;38.33;17.83;;;;;;;;;;4969800;28;20112;-69
2023/03/02 01:33:49;;;;;;;40.13;20.20;;;;;;;;;;4965945;28;20060;-70
2023/03/02 01:36:14;;;;;;;51.40;25.45;;;;;;;;;;4967854;28;20049;-69
2023/03/02 01:38:40;;;;;;;50.65;25.40;;;;;;;;;;4961135;28;20047;-68
2023/03/02 01:41:05;;;;;;;47.22;25.30;;;;;;;;;;4961170;28;20188;-68
2023/03/02 01:43:31;;;;;;;53.63;24.67;;;;;;;;;;4961082;28;20184;-67
2023/03/02 01:46:03;;;;;;;53.75;25.13;;;;;;;;;;4966132;28;20055;-67
2023/03/02 01:48:46;;;;;;;48.60;23.27;;;;;;;;;;4975196;28;20117;-67
2023/03/02 01:51:17;;;;;;;38.50;21.40;;;;;;;;;;4957883;28;20681;-67
2023/03/02 01:53:49;;;;;;;54.03;27.70;;;;;;;;;;4979434;28;20047;-70
2023/03/02 01:56:19;;;;;;;53.63;26.63;;;;;;;;;;4971499;28;20046;-70
2023/03/02 01:58:47;;;;;;;51.97;27.25;;;;;;;;;;4959974;28;20775;-69
2023/03/02 02:01:16;;;;;;;54.55;25.85;;;;;;;;;;4958205;28;20819;-69
2023/03/02 02:03:44;;;;;;;51.35;24.30;;;;;;;;;;4966218;28;20897;-69
2023/03/02 02:06:20;;;;;;;49.95;26.48;;;;;;;;;;4975751;28;20085;-68
2023/03/02 02:08:47;;;;;;;55.55;24.88;;;;;;;;;;4967422;28;20054;-68
2023/03/02 02:11:12;;;;;;;35.25;19.38;;;;;;;;;;4973112;28;20051;-68
2023/03/02 02:13:38;;;;;;;42.15;22.13;;;;;;;;;;4962498;28;20043;-68
2023/03/02 02:16:04;;;;;;;47.42;24.02;;;;;;;;;;4977501;28;20375;-68
2023/03/02 02:18:30;;;;;;;43.90;22.70;;;;;;;;;;4975137;28;20136;-68
2023/03/02 02:20:56;;;;;;;46.92;23.45;;;;;;;;;;4967788;28;20092;-68
2023/03/02 02:23:30;;;;;;;50.28;25.17;;;;;;;;;;4974909;28;20511;-68
2023/03/02 02:26:00;;;;;;;41.33;20.95;;;;;;;;;;4968955;28;20956;-68
2023/03/02 02:28:34;;;;;;;52.53;26.85;;;;;;;;;;4970036;28;20057;-67
2023/03/02 02:31:21;;;;;;;49.20;25.10;;;;;;;;;;4968405;28;20039;-68
2023/03/02 02:33:52;;;;;;;47.85;24.80;;;;;;;;;;4963597;28;20057;-68
2023/03/02 02:36:22;;;;;;;51.13;23.23;;;;;;;;;;4965645;28;20100;-68
2023/03/02 02:38:53;;;;;;;46.72;25.13;;;;;;;;;;4968171;28;20054;-69
2023/03/02 02:41:24;;;;;;;49.38;23.15;;;;;;;;;;4960986;28;20150;-68
2023/03/02 02:43:49;;;;;;;41.05;22.42;;;;;;;;;;4951994;28;20166;-68
2023/03/02 02:46:15;;;;;;;49.03;23.70;;;;;;;;;;4973900;28;20134;-69
2023/03/02 02:48:40;;;;;;;43.13;22.27;;;;;;;;;;4959547;28;20047;-69
2023/03/02 02:51:09;;;;;;;47.35;19.90;;;;;;;;;;4958686;28;20058;-69
2023/03/02 02:53:46;;;;;;;48.72;25.35;;;;;;;;;;4967229;28;20051;-69
2023/03/02 02:56:13;;;;;;;43.97;22.88;;;;;;;;;;4964086;28;20057;-68
2023/03/02 02:58:44;;;;;;;43.33;22.02;;;;;;;;;;4962376;28;20066;-69
2023/03/02 03:01:16;;;;;;;45.78;24.25;;;;;;;;;;4959758;28;20126;-69
2023/03/02 03:03:49;;;;;;;39.55;20.98;;;;;;;;;;4960407;28;20065;-70
2023/03/02 03:06:24;;;;;;;47.63;20.35;;;;;;;;;;4966068;28;20046;-69
2023/03/02 03:08:54;;;;;;;46.22;24.08;;;;;;;;;;4979909;28;20043;-69
2023/03/02 03:11:32;;;;;;;34.47;18.30;;;;;;;;;;5036048;28;20093;-70
2023/03/02 03:14:09;;;;;;;40.13;21.65;;;;;;;;;;4975688;28;20058;-70
2023/03/02 03:16:37;;;;;;;38.90;22.17;;;;;;;;;;5053282;28;20073;-70
2023/03/02 03:19:12;;;;;;;45.33;24.45;;;;;;;;;;4970710;28;20056;-71
2023/03/02 03:21:37;;;;;;;56.90;25.63;;;;;;;;;;4958757;28;20859;-70
2023/03/02 03:24:03;;;;;;;45.08;23.63;;;;;;;;;;4961544;28;20119;-71
2023/03/02 03:26:29;;;;;;;43.70;21.10;;;;;;;;;;4957371;28;20050;-70
2023/03/02 03:28:56;;;;;;;52.28;24.55;;;;;;;;;;4973829;28;20046;-70
2023/03/02 03:31:24;;;;;;;46.80;23.83;;;;;;;;;;4960302;28;20077;-70
2023/03/02 03:33:50;;;;;;;51.60;24.50;;;;;;;;;;4959273;28;20049;-70
2023/03/02 03:36:16;;;;;;;51.08;24.90;;;;;;;;;;4959434;28;20035;-70
2023/03/02 03:38:43;;;;;;;48.75;25.23;;;;;;;;;;4957004;28;20586;-70
2023/03/02 03:41:09;;;;;;;48.72;24.60;;;;;;;;;;4961224;28;20168;-72
2023/03/02 03:43:35;;;;;;;43.20;23.52;;;;;;;;;;4969179;28;20133;-70
2023/03/02 03:46:00;;;;;;;49.83;24.48;;;;;;;;;;4968902;28;20046;-71
2023/03/02 03:48:26;;;;;;;46.58;24.38;;;;;;;;;;4966397;28;20126;-70
2023/03/02 03:50:52;;;;;;;40.50;22.13;;;;;;;;;;4971447;28;20115;-71
2023/03/02 03:53:17;;;;;;;48.08;23.80;;;;;;;;;;4969474;28;20419;-71
2023/03/02 03:55:43;;;;;;;41.90;21.55;;;;;;;;;;4969061;28;20712;-70
2023/03/02 03:58:09;;;;;;;45.92;22.63;;;;;;;;;;4960377;28;20054;-72
2023/03/02 04:00:35;;;;;;;54.10;24.17;;;;;;;;;;4960564;28;20725;-72
2023/03/02 04:03:06;;;;;;;51.40;25.90;;;;;;;;;;4975001;28;20061;-71
2023/03/02 04:05:32;;;;;;;50.08;24.33;;;;;;;;;;4959347;28;20113;-71
2023/03/02 04:08:00;;;;;;;46.70;24.60;;;;;;;;;;4957785;28;20049;-71
2023/03/02 04:10:28;;;;;;;50.65;22.30;;;;;;;;;;4956424;28;20092;-71
2023/03/02 04:12:54;;;;;;;54.17;26.42;;;;;;;;;;4968050;28;20130;-72
2023/03/02 04:15:20;;;;;;;45.45;23.08;;;;;;;;;;4966940;28;20050;-70
2023/03/02 04:17:48;;;;;;;55.70;26.67;;;;;;;;;;4964391;28;20046;-71
2023/03/02 04:20:17;;;;;;;51.05;26.80;;;;;;;;;;4963453;28;20130;-71
2023/03/02 04:22:48;;;;;;;52.22;25.15;;;;;;;;;;4972116;28;20050;-71
2023/03/02 04:25:18;;;;;;;56.83;25.75;;;;;;;;;;4965852;28;20440;-71
2023/03/02 04:27:46;;;;;;;53.38;22.77;;;;;;;;;;4958583;28;20590;-71
2023/03/02 04:30:13;;;;;;;46.80;24.55;;;;;;;;;;4964333;28;20503;-71
2023/03/02 04:32:38;;;;;;;47.85;25.13;;;;;;;;;;4963664;28;20402;-72
2023/03/02 04:35:04;;;;;;;49.20;24.92;;;;;;;;;;4963361;28;20511;-70
2023/03/02 04:37:30;;;;;;;52.30;24.25;;;;;;;;;;4962843;28;20050;-70
2023/03/02 04:39:55;;;;;;;46.65;23.40;;;;;;;;;;4965808;28;20038;-69
2023/03/02 04:42:21;;;;;;;45.00;23.73;;;;;;;;;;4968924;28;20423;-68
2023/03/02 04:44:47;;;;;;;47.10;23.73;;;;;;;;;;4958850;28;20070;-68
2023/03/02 04:47:13;;;;;;;50.10;23.38;;;;;;;;;;4969657;28;20042;-69
2023/03/02 04:49:38;;;;;;;47.17;24.70;;;;;;;;;;4970305;28;20050;-69
2023/03/02 04:52:04;;;;;;;53.33;25.77;;;;;;;;;;4971079;28;20057;-69
2023/03/02 04:54:30;;;;;;;55.72;25.25;;;;;;;;;;4959716;28;20053;-69
2023/03/02 04:56:56;;;;;;;47.45;24.70;;;;;;;;;;4967704;28;20498;-69
2023/03/02 04:59:25;;;;;;;49.65;23.73;;;;;;;;;;4962376;28;20042;-70
2023/03/02 05:01:52;;;;;;;47.58;23.50;;;;;;;;;;4965727;28;20533;-70
2023/03/02 05:04:18;;;;;;;43.08;22.63;;;;;;;;;;4973912;28;20096;-70
2023/03/02 05:06:43;;;;;;;41.20;21.52;;;;;;;;;;4967781;28;20051;-69
2023/03/02 05:09:09;;;;;;;41.40;21.70;;;;;;;;;;4963232;28;20046;-69
2023/03/02 05:11:35;;;;;;;39.85;20.90;;;;;;;;;;4960860;28;20058;-68
2023/03/02 05:14:04;;;;;;;48.42;23.52;;;;;;;;;;4962213;28;20073;-69
2023/03/02 05:16:32;;;;;;;40.33;21.23;;;;;;;;;;4961277;28;20054;-69
2023/03/02 05:18:59;;;;;;;54.58;24.55;;;;;;;;;;4964715;28;20045;-70
2023/03/02 05:21:24;;;;;;;48.65;21.42;;;;;;;;;;4961457;28;20043;-69
2023/03/02 05:23:50;;;;;;;49.08;25.55;;;;;;;;;;4961088;28;20049;-69
2023/03/02 05:26:16;;;;;;;47.22;23.27;;;;;;;;;;4968616;28;20058;-69
2023/03/02 05:28:42;;;;;;;49.53;24.85;;;;;;;;;;4971717;28;20035;-68
2023/03/02 05:31:09;;;;;;;44.33;23.65;;;;;;;;;;4979767;28;20036;-69
2023/03/02 05:33:34;;;;;;;41.17;20.77;;;;;;;;;;4971326;28;20047;-69
2023/03/02 05:36:00;;;;;;;48.53;22.50;;;;;;;;;;4975202;28;20078;-70
2023/03/02 05:38:26;;;;;;;45.85;23.33;;;;;;;;;;4973541;28;20058;-70
2023/03/02 05:40:52;;;;;;;50.65;23.45;;;;;;;;;;4974495;28;20050;-69
2023/03/02 05:43:19;;;;;;;34.85;19.65;;;;;;;;;;4966346;28;20096;-70
2023/03/02 05:45:59;;;;;;;46.75;24.20;;;;;;;;;;4978279;28;20053;-70
2023/03/02 05:48:33;;;;;;;53.30;22.70;;;;;;;;;;4964962;28;20461;-69
2023/03/02 05:50:59;;;;;;;42.25;21.63;;;;;;;;;;4963650;28;20047;-70
2023/03/02 05:53:30;;;;;;;49.28;21.75;;;;;;;;;;4960864;28;20074;-70
2023/03/02 05:55:56;;;;;;;48.60;21.63;;;;;;;;;;4967770;28;20046;-69
2023/03/02 05:58:21;;;;;;;47.22;21.20;;;;;;;;;;4967198;28;20062;-69
2023/03/02 06:00:47;;;;;;;40.45;20.38;;;;;;;;;;4973128;28;20066;-69
2023/03/02 06:03:14;;;;;;;44.20;21.70;;;;;;;;;;4965329;28;20073;-69
2023/03/02 06:05:39;;;;;;;42.30;21.92;;;;;;;;;;4968050;28;20049;-69
2023/03/02 06:08:05;;;;;;;50.83;23.35;;;;;;;;;;4968501;28;20050;-70
2023/03/02 06:10:31;;;;;;;47.88;24.25;;;;;;;;;;4968666;28;20507;-70
2023/03/02 06:12:57;;;;;;;53.75;25.88;;;;;;;;;;4967862;28;20044;-69
2023/03/02 06:15:23;;;;;;;44.78;22.05;;;;;;;;;;4967919;28;20054;-68
2023/03/02 06:17:48;;;;;;;46.17;21.95;;;;;;;;;;4967264;28;20537;-69
2023/03/02 06:20:14;;;;;;;47.28;22.35;;;;;;;;;;4966306;28;20050;-69
2023/03/02 06:22:43;;;;;;;50.55;24.15;;;;;;;;;;4975759;28;20950;-69
2023/03/02 06:25:11;;;;;;;44.03;21.33;;;;;;;;;;4957372;28;20043;-69
2023/03/02 06:27:38;;;;;;;46.20;21.65;;;;;;;;;;4961766;28;20093;-69
2023/03/02 06:30:05;;;;;;;42.00;20.58;;;;;;;;;;4964523;28;20043;-69
2023/03/02 06:32:34;;;;;;;36.03;20.35;;;;;;;;;;4961234;28;20510;-69
2023/03/02 06:35:03;;;;;;;40.45;20.13;;;;;;;;;;4969021;28;20053;-69
2023/03/02 06:37:30;;;;;;;48.65;21.67;;;;;;;;;;4962148;28;20054;-69
2023/03/02 06:39:56;;;;;;;44.17;21.13;;;;;;;;;;4960335;28;20103;-69
2023/03/02 06:42:22;;;;;;;38.08;20.80;;;;;;;;;;4959208;28;20054;-69
2023/03/02 06:44:48;;;;;;;39.28;22.70;;;;;;;;;;4962060;28;20080;-68
2023/03/02 06:47:13;;;;;;;44.75;21.30;;;;;;;;;;4959342;28;20055;-69
2023/03/02 06:49:39;;;;;;;42.33;21.92;;;;;;;;;;4960095;28;20058;-68
2023/03/02 06:52:06;;;;;;;43.17;23.00;;;;;;;;;;4958748;28;20142;-68
2023/03/02 06:54:32;;;;;;;41.95;21.08;;;;;;;;;;4959850;28;20054;-69
2023/03/02 06:56:58;;;;;;;46.15;23.75;;;;;;;;;;4959971;28;20035;-69
2023/03/02 06:59:23;;;;;;;44.97;22.50;;;;;;;;;;4958098;28;20484;-69
2023/03/02 07:01:50;;;;;;;36.63;14.38;;;;;;;;;;4958840;28;20153;-68
2023/03/02 07:04:16;;;;;;;41.10;19.77;;;;;;;;;;4962847;28;20074;-68
2023/03/02 07:06:41;;;;;;;37.20;19.73;;;;;;;;;;4965269;28;20531;-68
2023/03/02 07:09:07;;;;;;;42.22;19.92;;;;;;;;;;4957620;28;20051;-69
2023/03/02 07:11:32;;;;;;;39.63;21.33;;;;;;;;;;4957851;28;20062;-68
2023/03/02 07:14:01;;;;;;;34.03;18.60;;;;;;;;;;4958668;28;20042;-68
2023/03/02 07:16:27;;;;;;;36.72;18.30;;;;;;;;;;4959241;28;20466;-68
2023/03/02 07:18:53;;;;;;;31.52;17.63;;;;;;;;;;4960408;28;20051;-68
2023/03/02 07:21:18;;;;;;;37.10;20.45;;;;;;;;;;4958653;28;20058;-69
2023/03/02 07:23:44;;;;;;;38.83;19.20;;;;;;;;;;4958191;28;20527;-68
2023/03/02 07:26:09;;;;;;;32.55;19.30;;;;;;;;;;4960594;28;20042;-69
2023/03/02 07:28:38;;;;;;;37.20;20.92;;;;;;;;;;4963939;28;20087;-69
2023/03/02 07:31:04;;;;;;;33.65;17.33;;;;;;;;;;4965533;28;20054;-69
2023/03/02 07:33:29;;;;;;;33.42;15.70;;;;;;;;;;4970934;28;20050;-69
2023/03/02 07:35:55;;;;;;;32.92;16.88;;;;;;;;;;4968610;28;20050;-69
2023/03/02 07:38:20;;;;;;;28.58;15.38;;;;;;;;;;4970448;28;20059;-69
2023/03/02 07:40:46;;;;;;;27.02;14.75;;;;;;;;;;4968427;28;20048;-68
2023/03/02 07:43:11;;;;;;;35.20;16.05;;;;;;;;;;4968244;28;20045;-69
2023/03/02 07:45:37;;;;;;;29.55;15.38;;;;;;;;;;4968431;28;20046;-69
2023/03/02 07:48:03;;;;;;;26.05;15.05;;;;;;;;;;4970665;28;20151;-69
2023/03/02 07:50:29;;;;;;;27.48;15.88;;;;;;;;;;4965073;28;20169;-69
2023/03/02 07:52:55;;;;;;;23.33;13.80;;;;;;;;;;4965846;28;20543;-70
2023/03/02 07:55:20;;;;;;;29.52;15.40;;;;;;;;;;4967862;28;20059;-69
2023/03/02 07:57:46;;;;;;;30.30;15.73;;;;;;;;;;4968681;28;20066;-69
2023/03/02 08:00:11;;;;;;;25.98;15.48;;;;;;;;;;4966548;28;20047;-68
2023/03/02 08:02:38;;;;;;;28.23;15.50;;;;;;;;;;4970077;28;20046;-67
2023/03/02 08:05:04;;;;;;;27.05;15.07;;;;;;;;;;4967912;28;20062;-68
2023/03/02 08:07:30;;;;;;;26.85;15.02;;;;;;;;;;4970703;28;20774;-68
2023/03/02 08:09:56;;;;;;;26.33;15.00;;;;;;;;;;4969961;28;20057;-68
2023/03/02 08:12:22;;;;;;;28.52;15.35;;;;;;;;;;4966847;28;20050;-68
2023/03/02 08:14:48;;;;;;;28.98;15.65;;;;;;;;;;4969553;28;20540;-68
2023/03/02 08:17:13;;;;;;;30.00;15.77;;;;;;;;;;4969248;28;20070;-68
2023/03/02 08:19:39;;;;;;;27.15;14.60;;;;;;;;;;4972100;28;20058;-68
2023/03/02 08:22:04;;;;;;;28.50;15.50;;;;;;;;;;4970398;28;20053;-70
2023/03/02 08:24:30;;;;;;;28.80;15.00;;;;;;;;;;4969825;28;20050;-68
2023/03/02 08:26:59;;;;;;;26.83;15.65;;;;;;;;;;4971896;28;20107;-70
2023/03/02 08:29:24;;;;;;;27.90;15.98;;;;;;;;;;4971766;28;20572;-70
2023/03/02 08:31:49;;;;;;;29.50;15.32;;;;;;;;;;4970327;28;20050;-68
2023/03/02 08:34:15;;;;;;;26.55;16.67;;;;;;;;;;4973396;28;20038;-68
2023/03/02 08:36:42;;;;;;;23.95;15.15;;;;;;;;;;4971809;28;20515;-68
2023/03/02 08:39:07;;;;;;;22.35;13.82;;;;;;;;;;4970199;28;20088;-69
2023/03/02 08:41:33;;;;;;;23.65;14.05;;;;;;;;;;4968613;28;20051;-68
2023/03/02 08:43:58;;;;;;;22.33;14.10;;;;;;;;;;4975223;28;20501;-68
2023/03/02 08:46:24;;;;;;;23.30;14.70;;;;;;;;;;4971516;28;20058;-68
2023/03/02 08:48:50;;;;;;;24.35;15.38;;;;;;;;;;4974580;28;20089;-68
2023/03/02 08:51:21;;;;;;;29.67;15.35;;;;;;;;;;4973587;28;20175;-69
2023/03/02 08:53:49;;;;;;;24.48;14.43;;;;;;;;;;4972401;28;20101;-68
2023/03/02 08:56:23;;;;;;;24.65;14.95;;;;;;;;;;4976486;28;20042;-68
2023/03/02 08:58:50;;;;;;;24.75;15.07;;;;;;;;;;4974403;28;20046;-68
2023/03/02 09:01:19;;;;;;;27.95;15.80;;;;;;;;;;4971949;28;20058;-69
2023/03/02 09:03:44;;;;;;;22.27;13.75;;;;;;;;;;4966572;28;20075;-68
2023/03/02 09:06:10;;;;;;;25.00;14.77;;;;;;;;;;4970816;28;20050;-69
2023/03/02 09:08:36;;;;;;;23.77;14.40;;;;;;;;;;4965371;28;20063;-70
2023/03/02 09:11:01;;;;;;;28.35;14.73;;;;;;;;;;4962291;28;20072;-70
2023/03/02 09:13:27;;;;;;;26.13;15.32;;;;;;;;;;4965824;28;20053;-69
2023/03/02 09:15:52;;;;;;;25.10;14.50;;;;;;;;;;4964828;28;20092;-69
2023/03/02 09:18:17;;;;;;;27.10;15.63;;;;;;;;;;4966163;28;20038;-69
2023/03/02 09:20:43;;;;;;;23.77;15.05;;;;;;;;;;4963181;28;20097;-69
2023/03/02 09:23:09;;;;;;;23.90;14.40;;;;;;;;;;4970329;28;20048;-69
2023/03/02 09:25:35;;;;;;;26.35;14.77;;;;;;;;;;4975985;28;20422;-69
2023/03/02 09:28:00;;;;;;;20.35;13.48;;;;;;;;;;4961846;28;20100;-69
2023/03/02 09:30:26;;;;;;;21.08;13.48;;;;;;;;;;4963801;28;20069;-69
2023/03/02 09:32:51;;;;;;;23.67;13.70;;;;;;;;;;4961212;28;20140;-69
2023/03/02 09:35:16;;;;;;;24.15;14.80;;;;;;;;;;4965088;28;20058;-69
2023/03/02 09:37:42;;;;;;;23.48;13.18;;;;;;;;;;4961139;28;20108;-70
2023/03/02 09:40:19;;;;;;;25.98;14.50;;;;;;;;;;4960616;28;20154;-69
2023/03/02 09:43:03;;;;;;;25.70;15.15;;;;;;;;;;4960098;28;20587;-68
2023/03/02 09:45:34;;;;;;;26.17;14.68;;;;;;;;;;5039959;28;20050;-69
2023/03/02 09:48:06;;;;;;;24.35;14.30;;;;;;;;;;4966154;28;20051;-69
2023/03/02 09:50:34;;;;;;;20.55;12.63;;;;;;;;;;4965325;28;20042;-69
2023/03/02 09:53:22;;;;;;;21.20;13.52;;;;;;;;;;4967184;28;20061;-69
2023/03/02 09:55:53;;;;;;;23.02;14.45;;;;;;;;;;4971113;28;20833;-69
2023/03/02 09:58:21;;;;;;;21.50;13.67;;;;;;;;;;4972642;28;20967;-69
2023/03/02 10:00:48;;;;;;;17.98;12.60;;;;;;;;;;4964872;28;20046;-69
2023/03/02 10:03:17;;;;;;;19.70;13.48;;;;;;;;;;4964021;28;20128;-69
2023/03/02 10:05:51;;;;;;;23.88;13.13;;;;;;;;;;4964705;28;20184;-69
2023/03/02 10:08:38;;;;;;;19.75;13.13;;;;;;;;;;4963860;28;20104;-69
2023/03/02 10:11:48;;;;;;;23.38;13.48;;;;;;;;;;4962853;28;20487;-69
2023/03/02 10:14:32;;;;;;;22.73;14.30;;;;;;;;;;4965112;28;20046;-69
2023/03/02 10:17:30;;;;;;;22.73;12.75;;;;;;;;;;4964934;28;20043;-69
2023/03/02 10:20:01;;;;;;;21.80;12.93;;;;;;;;;;4968803;28;20047;-69
2023/03/02 10:22:44;;;;;;;18.65;12.32;;;;;;;;;;4973749;28;20042;-69
2023/03/02 10:25:41;;;;;;;25.17;12.75;;;;;;;;;;4960525;28;20046;-69
2023/03/02 10:28:20;;;;;;;18.42;12.32;;;;;;;;;;4966309;28;20088;-68
2023/03/02 10:30:53;;;;;;;21.90;12.45;;;;;;;;;;4965217;28;20054;-68
2023/03/02 10:33:20;;;;;;;23.48;12.68;;;;;;;;;;4968086;28;20061;-69
2023/03/02 10:35:49;;;;;;;16.70;11.85;;;;;;;;;;4965658;28;20369;-70
2023/03/02 10:38:18;;;;;;;18.23;12.45;;;;;;;;;;4966777;28;20092;-70
2023/03/02 10:40:58;;;;;;;19.30;12.98;;;;;;;;;;4967974;28;20168;-70
2023/03/02 10:43:35;;;;;;;17.05;11.93;;;;;;;;;;4972354;28;20089;-69
2023/03/02 10:46:09;;;;;;;29.65;12.70;;;;;;;;;;4959893;28;20058;-69
2023/03/02 10:48:51;;;;;;;22.08;12.57;;;;;;;;;;4966347;28;20108;-69
2023/03/02 10:51:25;;;;;;;19.80;11.93;;;;;;;;;;4970316;28;20702;-69
2023/03/02 10:54:12;;;;;;;19.10;12.00;;;;;;;;;;4961164;28;20042;-69
2023/03/02 10:56:41;;;;;;;18.92;11.82;;;;;;;;;;4962629;28;20077;-68
2023/03/02 10:59:43;;;;;;;19.10;12.23;;;;;;;;;;4965877;28;20042;-69
2023/03/02 11:02:26;;;;;;;22.38;12.55;;;;;;;;;;4946191;28;20137;-70
2023/03/02 11:05:17;;;;;;;21.48;12.68;;;;;;;;;;4973101;28;20730;-68
2023/03/02 11:08:00;;;;;;;21.30;11.90;;;;;;;;;;5034008;28;20119;-68
2023/03/02 11:10:38;;;;;;;19.45;11.13;;;;;;;;;;4969351;28;20059;-67
2023/03/02 11:13:28;;;;;;;27.95;16.73;;;;;;;;;;4961220;28;20050;-67
2023/03/02 11:16:02;;;;;;;19.35;13.07;;;;;;;;;;4959388;28;20129;-68
2023/03/02 11:18:36;;;;;;;20.35;11.57;;;;;;;;;;4974592;28;20453;-69
2023/03/02 11:21:07;;;;;;;17.23;11.20;;;;;;;;;;4961201;28;20125;-68
2023/03/02 11:23:41;;;;;;;15.80;11.18;;;;;;;;;;4967110;28;20486;-69
2023/03/02 11:26:19;;;;;;;17.42;11.55;;;;;;;;;;4959724;28;20042;-69
2023/03/02 11:28:56;;;;;;;21.27;11.27;;;;;;;;;;4959900;28;20046;-69
2023/03/02 11:31:47;;;;;;;18.45;10.45;;;;;;;;;;4960697;28;20062;-71
2023/03/02 11:34:21;;;;;;;16.05;10.68;;;;;;;;;;4972720;28;20042;-69
2023/03/02 11:36:56;;;;;;;16.00;10.48;;;;;;;;;;4960082;28;20070;-70
2023/03/02 11:39:29;;;;;;;15.80;11.18;;;;;;;;;;4963766;28;21069;-70
2023/03/02 11:41:55;;;;;;;15.88;10.45;;;;;;;;;;4964785;28;20529;-70
2023/03/02 11:44:22;;;;;;;15.48;9.48;;;;;;;;;;4966117;28;20064;-69
2023/03/02 11:46:52;;;;;;;20.95;11.68;;;;;;;;;;4968076;28;20091;-69
2023/03/02 11:49:22;;;;;;;14.52;9.40;;;;;;;;;;4963910;28;20137;-69
2023/03/02 11:51:55;;;;;;;18.40;10.38;;;;;;;;;;4958996;28;20446;-72
2023/03/02 11:54:33;;;;;;;14.95;9.88;;;;;;;;;;4967316;28;20695;-69
2023/03/02 11:57:00;;;;;;;15.52;9.70;;;;;;;;;;4958515;28;20843;-69
2023/03/02 11:59:27;;;;;;;15.18;10.45;;;;;;;;;;4961095;28;20051;-70
2023/03/02 12:01:53;;;;;;;17.83;11.13;;;;;;;;;;4958351;28;20997;-70
2023/03/02 12:04:48;;;;;;;14.75;9.80;;;;;;;;;;4965312;28;20407;-69
2023/03/02 12:07:23;;;;;;;20.83;10.20;;;;;;;;;;4955433;28;20710;-69
2023/03/02 12:10:05;;;;;;;14.50;10.02;;;;;;;;;;4961822;28;20142;-70
2023/03/02 12:12:39;;;;;;;15.10;9.90;;;;;;;;;;4960823;28;20058;-69
2023/03/02 12:15:35;;;;;;;19.15;10.85;;;;;;;;;;4969130;28;20050;-71
2023/03/02 12:18:01;;;;;;;16.65;9.75;;;;;;;;;;4965631;28;20053;-69
2023/03/02 12:20:28;;;;;;;13.95;9.25;;;;;;;;;;4968125;28;20042;-69
2023/03/02 12:23:06;;;;;;;15.60;9.80;;;;;;;;;;4960954;28;20074;-69
2023/03/02 12:25:39;;;;;;;16.17;10.38;;;;;;;;;;5042843;28;20550;-70
2023/03/02 12:28:05;;;;;;;14.57;10.05;;;;;;;;;;4969792;28;20047;-69
2023/03/02 12:30:31;;;;;;;14.73;9.93;;;;;;;;;;4968068;28;20096;-69
2023/03/02 12:33:02;;;;;;;16.95;10.05;;;;;;;;;;4961316;28;20066;-70
2023/03/02 12:35:31;;;;;;;14.02;10.35;;;;;;;;;;4963041;28;20567;-70
2023/03/02 12:38:15;;;;;;;14.15;9.75;;;;;;;;;;4963046;28;20047;-70
2023/03/02 12:41:08;;;;;;;14.18;9.70;;;;;;;;;;4961352;28;20122;-70
2023/03/02 12:43:44;;;;;;;15.85;9.63;;;;;;;;;;5039306;28;20042;-70
2023/03/02 12:46:32;;;;;;;15.98;9.73;;;;;;;;;;4965793;28;20100;-71
2023/03/02 12:49:16;;;;;;;17.33;10.73;;;;;;;;;;4961612;28;20053;-70
2023/03/02 12:51:57;;;;;;;13.35;9.60;;;;;;;;;;4968435;28;20126;-69
2023/03/02 12:54:29;;;;;;;16.13;9.77;;;;;;;;;;4967985;28;20048;-69
2023/03/02 12:57:24;;;;;;;18.50;11.98;;;;;;;;;;4970355;28;20133;-69
2023/03/02 12:59:52;;;;;;;16.25;10.05;;;;;;;;;;5015147;28;20410;-69
2023/03/02 13:02:20;;;;;;;21.92;10.35;;;;;;;;;;4966606;28;20403;-68
2023/03/02 13:04:57;;;;;;;15.05;10.15;;;;;;;;;;4967958;28;20050;-69
2023/03/02 13:07:35;;;;;;;20.88;11.80;;;;;;;;;;4962838;28;20880;-69
2023/03/02 13:10:07;;;;;;;17.92;10.93;;;;;;;;;;4961558;28;20047;-68
2023/03/02 13:12:34;;;;;;;18.63;11.18;;;;;;;;;;4961417;28;20054;-68
2023/03/02 13:15:00;;;;;;;15.82;10.40;;;;;;;;;;4964856;28;20096;-69
2023/03/02 13:17:31;;;;;;;19.35;10.95;;;;;;;;;;4962793;28;20051;-68
2023/03/02 13:19:59;;;;;;;17.42;10.93;;;;;;;;;;4961998;28;20411;-68
2023/03/02 13:22:26;;;;;;;17.05;10.55;;;;;;;;;;4962953;28;20054;-68
2023/03/02 13:25:03;;;;;;;17.63;10.32;;;;;;;;;;4962283;28;20042;-69
2023/03/02 13:27:29;;;;;;;16.25;10.13;;;;;;;;;;5043958;28;20061;-68
2023/03/02 13:29:55;;;;;;;16.13;9.82;;;;;;;;;;4963918;28;20116;-68
2023/03/02 13:32:25;;;;;;;16.50;10.18;;;;;;;;;;4961663;28;20054;-69
2023/03/02 13:34:56;;;;;;;16.35;10.50;;;;;;;;;;4967262;28;20053;-69
2023/03/02 13:37:32;;;;;;;17.20;11.32;;;;;;;;;;4961162;28;20111;-69
2023/03/02 13:40:00;;;;;;;22.08;11.27;;;;;;;;;;4960820;28;20115;-69
2023/03/02 13:42:39;;;;;;;19.92;9.85;;;;;;;;;;4960102;28;20076;-69
2023/03/02 13:45:29;;;;;;;18.42;11.18;;;;;;;;;;4959897;28;20053;-69
2023/03/02 13:47:56;;;;;;;18.85;10.93;;;;;;;;;;4960084;28;20082;-69
2023/03/02 13:50:28;;;;;;;20.95;10.68;;;;;;;;;;4964992;28;20446;-69
2023/03/02 13:52:56;;;;;;;23.13;10.52;;;;;;;;;;4957783;28;20047;-68
2023/03/02 13:55:22;;;;;;;18.45;10.98;;;;;;;;;;4964743;28;21008;-69
2023/03/02 13:57:50;;;;;;;22.83;11.63;;;;;;;;;;4965980;28;20043;-69
2023/03/02 14:00:29;;;;;;;16.38;10.05;;;;;;;;;;4965814;28;20057;-70
2023/03/02 14:02:54;;;;;;;18.80;11.27;;;;;;;;;;4966900;28;20068;-70
2023/03/02 14:05:24;;;;;;;19.52;10.95;;;;;;;;;;4961910;28;20055;-69
2023/03/02 14:07:49;;;;;;;17.40;10.93;;;;;;;;;;4963933;28;20054;-71
2023/03/02 14:10:17;;;;;;;15.88;10.60;;;;;;;;;;4963991;28;20054;-70
2023/03/02 14:12:55;;;;;;;19.02;10.38;;;;;;;;;;4966971;28;20127;-70
2023/03/02 14:15:21;;;;;;;17.10;10.38;;;;;;;;;;4963609;28;20802;-70
2023/03/02 14:17:48;;;;;;;18.15;11.75;;;;;;;;;;4975444;28;20046;-69
2023/03/02 14:20:18;;;;;;;19.02;10.65;;;;;;;;;;4971342;28;20065;-71
2023/03/02 14:22:44;;;;;;;17.63;10.82;;;;;;;;;;4972957;28;20075;-69
2023/03/02 14:25:10;;;;;;;16.60;10.45;;;;;;;;;;4964650;28;20046;-69
2023/03/02 14:27:36;;;;;;;16.20;10.15;;;;;;;;;;4968968;28;20562;-69
2023/03/02 14:30:11;;;;;;;17.33;10.82;;;;;;;;;;4964292;28;20042;-70
2023/03/02 14:32:37;;;;;;;20.10;10.40;;;;;;;;;;4965510;28;20611;-69